Time;durP1;ratioP1;P1;durP2;ratioP2;P2;SDS_P1;SDS_P2;PMS_P1;PMS_P2;Temp;Humidity;BMP_temperature;BMP_pressure;BME280_temperature;BME280_humidity;BME280_pressure;Samples;Min_cycle;Max_cycle;Signal;HPM_P1;HPM_P2
2023/03/23 00:01:10;;;;;;;0.00;0.00;;;10.60;94.60;;;;;;5016472;28;20054;-70
2023/03/23 00:03:36;;;;;;;0.00;0.00;;;10.60;94.60;;;;;;5016583;28;20050;-70
2023/03/23 00:06:05;;;;;;;0.00;0.00;;;10.60;94.60;;;;;;5031103;28;20042;-70
2023/03/23 00:08:33;;;;;;;0.55;0.55;;;10.60;94.60;;;;;;5028028;28;20132;-70
2023/03/23 00:11:00;;;;;;;0.30;0.30;;;10.60;94.70;;;;;;5031856;28;20038;-70
2023/03/23 00:13:28;;;;;;;0.00;0.00;;;10.60;94.70;;;;;;5030099;28;20060;-70
2023/03/23 00:15:56;;;;;;;0.00;0.00;;;10.60;94.70;;;;;;5027313;28;20045;-70
2023/03/23 00:18:23;;;;;;;0.00;0.00;;;10.60;94.70;;;;;;5008295;28;20124;-70
2023/03/23 00:20:51;;;;;;;0.03;0.03;;;10.60;94.60;;;;;;5031283;28;20082;-70
2023/03/23 00:23:18;;;;;;;0.20;0.20;;;10.60;94.70;;;;;;5031043;28;20045;-70
2023/03/23 00:25:49;;;;;;;0.10;0.10;;;10.60;94.70;;;;;;5021704;28;20103;-71
2023/03/23 00:28:16;;;;;;;0.03;0.03;;;10.60;94.60;;;;;;5010300;28;20064;-71
2023/03/23 00:30:42;;;;;;;0.32;0.32;;;10.60;94.60;;;;;;5011909;28;20053;-71
2023/03/23 00:33:08;;;;;;;0.00;0.00;;;10.60;94.50;;;;;;5023300;28;20403;-70
2023/03/23 00:35:35;;;;;;;0.00;0.00;;;10.50;94.30;;;;;;5029467;28;20053;-70
2023/03/23 00:38:01;;;;;;;0.00;0.00;;;10.50;94.20;;;;;;5023237;28;20054;-71
2023/03/23 00:40:27;;;;;;;0.00;0.00;;;10.40;94.10;;;;;;5010593;28;20514;-71
2023/03/23 00:42:53;;;;;;;0.00;0.00;;;10.40;94.00;;;;;;5016260;28;20471;-70
2023/03/23 00:45:19;;;;;;;0.00;0.00;;;10.30;93.90;;;;;;5023233;28;20133;-71
2023/03/23 00:47:46;;;;;;;0.00;0.00;;;10.30;93.90;;;;;;5019380;28;20054;-70
2023/03/23 00:50:13;;;;;;;0.00;0.00;;;10.40;93.80;;;;;;5023372;28;20042;-70
2023/03/23 00:52:40;;;;;;;0.20;0.17;;;10.30;93.80;;;;;;5030340;28;20534;-71
2023/03/23 00:55:07;;;;;;;0.00;0.00;;;10.40;93.80;;;;;;5031582;28;20045;-70
2023/03/23 00:57:32;;;;;;;0.00;0.00;;;10.40;93.70;;;;;;5030872;28;20045;-70
2023/03/23 00:59:58;;;;;;;0.00;0.00;;;10.50;93.70;;;;;;5030503;28;20041;-71
2023/03/23 01:02:26;;;;;;;0.00;0.00;;;10.60;93.80;;;;;;5024498;28;20406;-70
2023/03/23 01:04:52;;;;;;;0.00;0.00;;;10.60;93.80;;;;;;5012221;28;20046;-71
2023/03/23 01:07:23;;;;;;;0.00;0.00;;;10.70;93.70;;;;;;5030981;28;20099;-71
2023/03/23 01:09:48;;;;;;;0.00;0.00;;;10.70;93.70;;;;;;5013344;28;20111;-71
2023/03/23 01:12:14;;;;;;;0.00;0.00;;;10.80;93.60;;;;;;5029094;28;20764;-71
2023/03/23 01:14:41;;;;;;;0.00;0.00;;;10.80;93.50;;;;;;5020800;28;20594;-70
2023/03/23 01:17:06;;;;;;;0.00;0.00;;;10.80;93.40;;;;;;5012376;28;20136;-71
2023/03/23 01:19:32;;;;;;;3.10;1.50;;;10.80;93.40;;;;;;5017767;28;20172;-71
2023/03/23 01:21:57;;;;;;;1.65;0.95;;;10.80;93.40;;;;;;5019004;28;20045;-71
2023/03/23 01:24:23;;;;;;;0.00;0.00;;;10.90;93.20;;;;;;5027755;28;20084;-71
2023/03/23 01:26:49;;;;;;;0.00;0.00;;;10.90;93.00;;;;;;5013297;28;20060;-71
2023/03/23 01:29:14;;;;;;;0.00;0.00;;;10.90;93.00;;;;;;5010836;28;20106;-71
2023/03/23 01:31:42;;;;;;;0.05;0.05;;;10.90;93.00;;;;;;5028579;28;20418;-71
2023/03/23 01:34:08;;;;;;;0.00;0.00;;;10.90;92.80;;;;;;5011850;28;20057;-70
2023/03/23 01:36:33;;;;;;;19.45;1.17;;;10.90;92.80;;;;;;5017328;28;20050;-70
2023/03/23 01:39:05;;;;;;;0.00;0.00;;;10.90;92.80;;;;;;5019994;28;20084;-71
2023/03/23 01:41:31;;;;;;;0.00;0.00;;;11.00;92.60;;;;;;5024104;28;20073;-71
2023/03/23 01:44:01;;;;;;;0.32;0.32;;;11.00;92.40;;;;;;5011287;28;20481;-71
2023/03/23 01:46:28;;;;;;;0.10;0.10;;;11.00;92.30;;;;;;4992904;28;20054;-71
2023/03/23 01:48:57;;;;;;;0.00;0.00;;;11.10;92.30;;;;;;5026411;28;20065;-71
2023/03/23 01:51:26;;;;;;;0.00;0.00;;;11.10;92.00;;;;;;5030572;28;20053;-70
2023/03/23 01:53:56;;;;;;;0.00;0.00;;;11.10;91.90;;;;;;5010474;28;20089;-71
2023/03/23 01:56:24;;;;;;;0.00;0.00;;;11.10;91.90;;;;;;5018482;28;20037;-71
2023/03/23 01:58:53;;;;;;;0.10;0.10;;;11.10;91.80;;;;;;5025451;28;20133;-71
2023/03/23 02:01:21;;;;;;;0.10;0.10;;;11.20;91.70;;;;;;5029716;28;20053;-70
2023/03/23 02:03:48;;;;;;;0.00;0.00;;;11.10;91.40;;;;;;5028607;28;20044;-70
2023/03/23 02:06:14;;;;;;;0.00;0.00;;;11.20;91.30;;;;;;5029947;28;20096;-70
2023/03/23 02:08:42;;;;;;;0.00;0.00;;;11.10;91.20;;;;;;5026945;28;20498;-70
2023/03/23 02:11:16;;;;;;;0.00;0.00;;;11.20;91.10;;;;;;5029129;28;20119;-71
2023/03/23 02:13:43;;;;;;;0.45;0.10;;;11.20;91.10;;;;;;5028489;28;20045;-71
2023/03/23 02:16:23;;;;;;;0.00;0.00;;;11.20;91.00;;;;;;5024097;28;20046;-71
2023/03/23 02:19:17;;;;;;;0.03;0.03;;;11.20;90.90;;;;;;5018347;28;20128;-70
2023/03/23 02:22:02;;;;;;;1.55;1.13;;;11.20;90.80;;;;;;5028203;28;20053;-70
2023/03/23 02:24:44;;;;;;;0.00;0.00;;;11.30;90.70;;;;;;5021980;28;20041;-70
2023/03/23 02:27:28;;;;;;;0.00;0.00;;;11.30;90.50;;;;;;5019171;28;20049;-70
2023/03/23 02:30:17;;;;;;;0.00;0.00;;;11.20;90.50;;;;;;5026778;28;20072;-70
2023/03/23 02:32:55;;;;;;;0.00;0.00;;;11.20;90.40;;;;;;5026563;28;20053;-70
2023/03/23 02:35:33;;;;;;;0.00;0.00;;;11.20;90.10;;;;;;5007554;28;20053;-70
2023/03/23 02:38:08;;;;;;;0.00;0.00;;;11.30;90.20;;;;;;5028125;28;20565;-71
2023/03/23 02:40:40;;;;;;;0.00;0.00;;;11.20;90.20;;;;;;5029214;28;20494;-71
2023/03/23 02:43:09;;;;;;;0.00;0.00;;;11.30;90.10;;;;;;5028242;28;20041;-70
2023/03/23 02:45:36;;;;;;;0.00;0.00;;;11.30;90.10;;;;;;5020769;28;20045;-70
2023/03/23 02:48:04;;;;;;;0.00;0.00;;;11.30;90.10;;;;;;4992103;28;20133;-71
2023/03/23 02:50:31;;;;;;;0.00;0.00;;;11.30;90.10;;;;;;5010176;28;20049;-71
2023/03/23 02:52:58;;;;;;;0.00;0.00;;;11.40;90.10;;;;;;5018641;28;20064;-71
2023/03/23 02:55:25;;;;;;;0.00;0.00;;;11.40;90.10;;;;;;5029006;28;20041;-70
2023/03/23 02:57:54;;;;;;;0.00;0.00;;;11.40;90.00;;;;;;5012176;28;20077;-71
2023/03/23 03:00:21;;;;;;;0.00;0.00;;;11.40;90.00;;;;;;4995010;28;20047;-71
2023/03/23 03:02:52;;;;;;;0.00;0.00;;;11.40;89.90;;;;;;5027736;28;20042;-71
2023/03/23 03:05:23;;;;;;;0.15;0.15;;;11.40;89.90;;;;;;5029124;28;20046;-70
2023/03/23 03:07:57;;;;;;;0.00;0.00;;;11.40;89.60;;;;;;5027618;28;20057;-71
2023/03/23 03:10:32;;;;;;;0.00;0.00;;;11.30;89.50;;;;;;5003150;28;20041;-68
2023/03/23 03:13:21;;;;;;;0.00;0.00;;;11.30;89.50;;;;;;5027754;28;20077;-68
2023/03/23 03:16:00;;;;;;;0.00;0.00;;;11.40;89.50;;;;;;5028891;28;20124;-70
2023/03/23 03:18:37;;;;;;;0.10;0.10;;;11.30;89.80;;;;;;5028722;28;20048;-70
2023/03/23 03:21:10;;;;;;;0.10;0.10;;;11.30;90.10;;;;;;5011563;28;20056;-69
2023/03/23 03:23:37;;;;;;;0.00;0.00;;;11.20;90.30;;;;;;4991181;28;20053;-69
2023/03/23 03:26:05;;;;;;;0.00;0.00;;;11.10;90.50;;;;;;5028176;28;20528;-70
2023/03/23 03:28:32;;;;;;;0.32;0.32;;;11.10;90.60;;;;;;5028765;28;20629;-70
2023/03/23 03:31:01;;;;;;;0.00;0.00;;;11.10;90.70;;;;;;5027648;28;20206;-69
2023/03/23 03:33:30;;;;;;;0.75;0.75;;;11.00;90.80;;;;;;5027955;28;20049;-69
2023/03/23 03:35:59;;;;;;;0.00;0.00;;;11.10;91.00;;;;;;5027908;28;20588;-69
2023/03/23 03:38:26;;;;;;;0.17;0.17;;;11.00;91.00;;;;;;5025687;28;20464;-68
2023/03/23 03:40:52;;;;;;;0.00;0.00;;;11.00;91.30;;;;;;5011298;28;20041;-69
2023/03/23 03:43:21;;;;;;;0.00;0.00;;;10.90;91.50;;;;;;5011065;28;20088;-69
2023/03/23 03:45:47;;;;;;;0.00;0.00;;;10.90;91.60;;;;;;5028532;28;20073;-69
2023/03/23 03:48:13;;;;;;;0.00;0.00;;;10.80;91.70;;;;;;5028012;28;20540;-69
2023/03/23 03:50:38;;;;;;;0.30;0.30;;;10.80;91.80;;;;;;5010627;28;20072;-69
2023/03/23 03:53:05;;;;;;;0.00;0.00;;;10.80;91.80;;;;;;5027878;28;20064;-69
2023/03/23 03:55:35;;;;;;;0.15;0.15;;;10.80;91.80;;;;;;5016267;28;20042;-69
2023/03/23 03:58:04;;;;;;;0.00;0.00;;;10.70;91.80;;;;;;4991139;28;20667;-69
2023/03/23 04:00:30;;;;;;;0.00;0.00;;;10.80;91.80;;;;;;5027187;28;20506;-68
2023/03/23 04:02:55;;;;;;;0.00;0.00;;;10.70;91.90;;;;;;5027787;28;20045;-70
2023/03/23 04:05:22;;;;;;;0.00;0.00;;;10.80;91.70;;;;;;5028110;28;20529;-68
2023/03/23 04:07:51;;;;;;;0.00;0.00;;;10.70;91.80;;;;;;5027667;28;20034;-69
2023/03/23 04:10:21;;;;;;;0.20;0.20;;;10.70;91.60;;;;;;5028051;28;20080;-69
2023/03/23 04:12:48;;;;;;;0.00;0.00;;;10.70;91.50;;;;;;5020489;28;20044;-69
2023/03/23 04:15:14;;;;;;;0.00;0.00;;;10.60;90.70;;;;;;5010578;28;20042;-69
2023/03/23 04:17:40;;;;;;;0.00;0.00;;;10.60;90.60;;;;;;5024335;28;20049;-69
2023/03/23 04:20:11;;;;;;;0.00;0.00;;;10.60;90.80;;;;;;5027269;28;20049;-69
2023/03/23 04:22:37;;;;;;;0.00;0.00;;;10.60;91.10;;;;;;5028258;28;20123;-69
2023/03/23 04:25:05;;;;;;;0.00;0.00;;;10.60;91.00;;;;;;5031142;28;20077;-69
2023/03/23 04:27:32;;;;;;;0.00;0.00;;;10.60;90.60;;;;;;5019969;28;20128;-69
2023/03/23 04:29:58;;;;;;;0.00;0.00;;;10.60;90.30;;;;;;5027797;28;20120;-68
2023/03/23 04:32:28;;;;;;;0.70;0.70;;;10.60;90.00;;;;;;5023569;28;20452;-69
2023/03/23 04:34:56;;;;;;;0.00;0.00;;;10.70;90.00;;;;;;5031443;28;20072;-68
2023/03/23 04:37:25;;;;;;;0.00;0.00;;;10.80;89.80;;;;;;5031258;28;20049;-69
2023/03/23 04:39:59;;;;;;;0.00;0.00;;;10.80;89.50;;;;;;5027913;28;20057;-68
2023/03/23 04:42:29;;;;;;;0.08;0.08;;;10.80;89.50;;;;;;5027958;28;20061;-68
2023/03/23 04:44:56;;;;;;;0.00;0.00;;;10.80;89.70;;;;;;5002248;28;20052;-69
2023/03/23 04:47:22;;;;;;;0.10;0.10;;;10.90;89.40;;;;;;5030111;28;20818;-69
2023/03/23 04:49:48;;;;;;;0.00;0.00;;;10.90;89.50;;;;;;5010955;28;20056;-68
2023/03/23 04:52:13;;;;;;;0.00;0.00;;;10.90;89.40;;;;;;5030896;28;20053;-68
2023/03/23 04:54:39;;;;;;;0.00;0.00;;;10.90;89.20;;;;;;5012352;28;20037;-68
2023/03/23 04:57:05;;;;;;;0.10;0.10;;;11.00;89.00;;;;;;5025709;28;20042;-69
2023/03/23 04:59:31;;;;;;;0.00;0.00;;;10.80;89.10;;;;;;5011332;28;20038;-68
2023/03/23 05:01:57;;;;;;;0.00;0.00;;;10.80;89.20;;;;;;5026318;28;20174;-69
2023/03/23 05:04:24;;;;;;;0.08;0.08;;;10.70;89.20;;;;;;5031026;28;20612;-68
2023/03/23 05:06:51;;;;;;;0.43;0.43;;;10.70;89.20;;;;;;5030774;28;20072;-69
2023/03/23 05:09:17;;;;;;;0.68;0.63;;;10.60;89.10;;;;;;5000670;28;21010;-68
2023/03/23 05:11:42;;;;;;;0.30;0.30;;;10.60;89.00;;;;;;5029704;28;20158;-69
2023/03/23 05:14:08;;;;;;;0.05;0.05;;;10.70;88.80;;;;;;5030800;28;20391;-69
2023/03/23 05:16:37;;;;;;;0.00;0.00;;;10.60;88.70;;;;;;5012966;28;20057;-68
2023/03/23 05:19:04;;;;;;;0.00;0.00;;;10.60;88.80;;;;;;5022381;28;20068;-68
2023/03/23 05:21:30;;;;;;;0.00;0.00;;;10.60;88.60;;;;;;5029690;28;20057;-69
2023/03/23 05:23:55;;;;;;;0.70;0.70;;;10.50;88.60;;;;;;5030459;28;20099;-69
2023/03/23 05:26:23;;;;;;;0.00;0.00;;;10.40;88.50;;;;;;4994902;28;20045;-69
2023/03/23 05:28:52;;;;;;;0.00;0.00;;;10.50;88.50;;;;;;5011479;28;20049;-69
2023/03/23 05:31:19;;;;;;;0.32;0.32;;;10.50;88.30;;;;;;5013601;28;20493;-70
2023/03/23 05:33:45;;;;;;;0.00;0.00;;;10.40;88.50;;;;;;5021094;28;20041;-70
2023/03/23 05:36:13;;;;;;;0.00;0.00;;;10.50;88.40;;;;;;5027789;28;20072;-68
2023/03/23 05:38:41;;;;;;;0.00;0.00;;;10.50;88.30;;;;;;4983770;28;20060;-69
2023/03/23 05:41:07;;;;;;;3.33;2.67;;;10.50;88.40;;;;;;5027845;28;20045;-69
2023/03/23 05:43:33;;;;;;;0.05;0.05;;;10.50;88.40;;;;;;5022865;28;20041;-70
2023/03/23 05:45:59;;;;;;;0.30;0.30;;;10.40;88.50;;;;;;5015704;28;20037;-69
2023/03/23 05:48:26;;;;;;;0.05;0.05;;;10.50;88.60;;;;;;5015891;28;20468;-69
2023/03/23 05:50:51;;;;;;;0.00;0.00;;;10.50;88.70;;;;;;5016367;28;20570;-69
2023/03/23 05:53:17;;;;;;;0.30;0.30;;;10.60;88.40;;;;;;5016012;28;20053;-69
2023/03/23 05:55:43;;;;;;;0.08;0.08;;;10.60;88.30;;;;;;5016622;28;20396;-69
2023/03/23 05:58:08;;;;;;;2.47;2.17;;;10.60;88.50;;;;;;4998233;28;20064;-69
2023/03/23 06:00:34;;;;;;;2.08;1.48;;;10.60;88.00;;;;;;5016331;28;20085;-68
2023/03/23 06:03:00;;;;;;;0.00;0.00;;;10.50;87.30;;;;;;5015599;28;20172;-69
2023/03/23 06:05:26;;;;;;;0.00;0.00;;;10.30;86.50;;;;;;5015115;28;20075;-69
2023/03/23 06:07:53;;;;;;;0.00;0.00;;;10.20;85.70;;;;;;5014444;28;20056;-68
2023/03/23 06:10:19;;;;;;;0.00;0.00;;;10.20;85.80;;;;;;5016461;28;20041;-69
2023/03/23 06:12:45;;;;;;;0.00;0.00;;;10.10;86.20;;;;;;5014240;28;20092;-69
2023/03/23 06:15:11;;;;;;;0.00;0.00;;;10.00;87.00;;;;;;5016131;28;20050;-69
2023/03/23 06:17:37;;;;;;;0.55;0.52;;;10.00;87.60;;;;;;5016228;28;20040;-69
2023/03/23 06:20:08;;;;;;;0.20;0.20;;;9.90;88.30;;;;;;5015254;28;20583;-69
2023/03/23 06:22:34;;;;;;;0.00;0.00;;;9.90;88.50;;;;;;5015603;28;20065;-69
2023/03/23 06:24:59;;;;;;;0.30;0.30;;;9.80;88.20;;;;;;5013437;28;20189;-70
2023/03/23 06:27:25;;;;;;;0.00;0.00;;;9.80;87.90;;;;;;5014976;28;20038;-69
2023/03/23 06:29:51;;;;;;;0.00;0.00;;;9.80;87.60;;;;;;5014740;28;20406;-69
2023/03/23 06:32:16;;;;;;;0.00;0.00;;;9.80;87.20;;;;;;4997664;28;20041;-70
2023/03/23 06:34:44;;;;;;;0.00;0.00;;;9.80;87.40;;;;;;5014219;28;20041;-69
2023/03/23 06:37:10;;;;;;;0.00;0.00;;;9.90;87.80;;;;;;5015484;28;20564;-69
2023/03/23 06:39:38;;;;;;;2.03;1.55;;;10.00;88.40;;;;;;5014538;28;20143;-69
2023/03/23 06:42:03;;;;;;;0.60;0.60;;;10.00;88.50;;;;;;5014869;28;20042;-69
2023/03/23 06:44:29;;;;;;;2.28;2.08;;;10.00;89.10;;;;;;5014937;28;20042;-69
2023/03/23 06:46:55;;;;;;;0.00;0.00;;;10.10;89.20;;;;;;5014511;28;20160;-69
2023/03/23 06:49:20;;;;;;;0.10;0.10;;;10.10;89.30;;;;;;5014568;28;20125;-70
2023/03/23 06:51:46;;;;;;;1.63;1.50;;;10.20;89.50;;;;;;5014542;28;20402;-69
2023/03/23 06:54:12;;;;;;;0.10;0.10;;;10.20;89.30;;;;;;5015225;28;20506;-69
2023/03/23 06:56:37;;;;;;;0.30;0.30;;;10.10;89.50;;;;;;5012782;28;20052;-67
2023/03/23 06:59:03;;;;;;;0.00;0.00;;;10.20;89.50;;;;;;5017012;28;20053;-69
2023/03/23 07:01:29;;;;;;;0.00;0.00;;;10.20;89.40;;;;;;4979985;28;20038;-70
2023/03/23 07:03:58;;;;;;;0.20;0.20;;;10.20;89.50;;;;;;4996182;28;20042;-70
2023/03/23 07:06:25;;;;;;;2.28;2.00;;;10.20;89.60;;;;;;4996525;28;20050;-71
2023/03/23 07:08:50;;;;;;;0.10;0.10;;;10.30;89.40;;;;;;5013228;28;20083;-71
2023/03/23 07:11:16;;;;;;;0.00;0.00;;;10.30;89.50;;;;;;5013734;28;20160;-66
2023/03/23 07:13:41;;;;;;;0.00;0.00;;;10.30;89.70;;;;;;5013731;28;20095;-66
2023/03/23 07:16:07;;;;;;;0.80;0.73;;;10.30;89.50;;;;;;4996756;28;20108;-73
2023/03/23 07:18:33;;;;;;;0.00;0.00;;;10.40;89.70;;;;;;5014368;28;20095;-70
2023/03/23 07:20:59;;;;;;;0.00;0.00;;;10.40;89.30;;;;;;4997349;28;20054;-66
2023/03/23 07:23:25;;;;;;;0.00;0.00;;;10.40;89.10;;;;;;4981669;28;20069;-66
2023/03/23 07:25:51;;;;;;;0.00;0.00;;;10.40;89.10;;;;;;5014725;28;20072;-66
2023/03/23 07:28:18;;;;;;;0.00;0.00;;;10.50;89.20;;;;;;4996000;28;20127;-65
2023/03/23 07:30:44;;;;;;;0.10;0.10;;;10.50;88.80;;;;;;5015472;28;20052;-65
2023/03/23 07:33:10;;;;;;;0.00;0.00;;;10.60;88.70;;;;;;5013879;28;20052;-65
2023/03/23 07:35:37;;;;;;;0.20;0.20;;;10.50;88.70;;;;;;5012730;28;20061;-65
2023/03/23 07:38:04;;;;;;;0.00;0.00;;;10.50;88.70;;;;;;5014012;28;20054;-66
2023/03/23 07:40:33;;;;;;;0.22;0.22;;;10.50;88.80;;;;;;5014626;28;21226;-65
2023/03/23 07:42:59;;;;;;;0.00;0.00;;;10.50;88.80;;;;;;5014009;28;20634;-65
2023/03/23 07:45:26;;;;;;;0.30;0.30;;;10.40;88.60;;;;;;5014662;28;20038;-65
2023/03/23 07:47:52;;;;;;;0.30;0.30;;;10.40;88.70;;;;;;5015221;28;20749;-65
2023/03/23 07:50:22;;;;;;;5.07;2.75;;;10.50;88.70;;;;;;5013337;28;20053;-65
2023/03/23 07:52:48;;;;;;;0.00;0.00;;;10.40;88.50;;;;;;5014561;28;20582;-67
2023/03/23 07:55:17;;;;;;;2.83;2.45;;;10.40;88.70;;;;;;4999125;28;20401;-66
2023/03/23 07:57:47;;;;;;;0.00;0.00;;;10.50;88.60;;;;;;5019516;28;20662;-67
2023/03/23 08:00:18;;;;;;;0.10;0.10;;;10.40;88.50;;;;;;5019032;28;20041;-67
2023/03/23 08:02:48;;;;;;;0.08;0.08;;;10.50;88.40;;;;;;5018070;28;20096;-67
2023/03/23 08:05:14;;;;;;;0.00;0.00;;;10.50;88.30;;;;;;5000930;28;20041;-65
2023/03/23 08:07:41;;;;;;;0.00;0.00;;;10.40;88.20;;;;;;5016403;28;20528;-65
2023/03/23 08:10:12;;;;;;;0.03;0.03;;;10.40;88.20;;;;;;5018166;28;20042;-67
2023/03/23 08:12:39;;;;;;;0.00;0.00;;;10.40;88.10;;;;;;5018802;28;20038;-66
2023/03/23 08:15:12;;;;;;;0.00;0.00;;;10.40;88.00;;;;;;5017974;28;20121;-66
2023/03/23 08:17:40;;;;;;;1.05;1.02;;;10.50;87.70;;;;;;5018442;28;20052;-66
2023/03/23 08:20:10;;;;;;;2.83;1.85;;;10.40;87.90;;;;;;5019214;28;20084;-66
2023/03/23 08:22:37;;;;;;;0.10;0.10;;;10.50;87.80;;;;;;5018155;28;20041;-66
2023/03/23 08:25:06;;;;;;;0.00;0.00;;;10.50;87.80;;;;;;5018549;28;20037;-64
2023/03/23 08:27:32;;;;;;;0.00;0.00;;;10.50;87.90;;;;;;5000475;28;20143;-64
2023/03/23 08:29:57;;;;;;;0.00;0.00;;;10.60;87.70;;;;;;4999968;28;20438;-65
2023/03/23 08:32:23;;;;;;;0.05;0.05;;;10.70;87.50;;;;;;5018189;28;20044;-66
2023/03/23 08:34:49;;;;;;;0.20;0.20;;;10.80;87.50;;;;;;5018018;28;20388;-66
2023/03/23 08:37:16;;;;;;;0.25;0.25;;;10.80;87.60;;;;;;5018858;28;20056;-65
2023/03/23 08:39:42;;;;;;;3.80;2.30;;;10.80;87.60;;;;;;5016831;28;20052;-65
2023/03/23 08:42:09;;;;;;;0.00;0.00;;;10.90;87.70;;;;;;5017801;28;20049;-66
2023/03/23 08:44:36;;;;;;;0.08;0.08;;;10.90;87.80;;;;;;5018010;28;20403;-66
2023/03/23 08:47:03;;;;;;;0.45;0.45;;;11.00;87.50;;;;;;5017426;28;20038;-65
2023/03/23 08:49:30;;;;;;;0.10;0.10;;;11.10;86.70;;;;;;5017166;28;20060;-65
2023/03/23 08:51:56;;;;;;;0.00;0.00;;;11.10;86.70;;;;;;4999248;28;20514;-65
2023/03/23 08:54:22;;;;;;;0.13;0.13;;;11.10;86.60;;;;;;4998624;28;20045;-65
2023/03/23 08:56:47;;;;;;;0.90;0.90;;;11.10;85.80;;;;;;5015571;28;20046;-65
2023/03/23 08:59:13;;;;;;;0.00;0.00;;;11.10;86.30;;;;;;5016129;28;20132;-65
2023/03/23 09:01:38;;;;;;;0.55;0.55;;;11.30;85.80;;;;;;5016994;28;20069;-66
2023/03/23 09:04:04;;;;;;;0.52;0.52;;;11.20;85.80;;;;;;4999105;28;20046;-65
2023/03/23 09:06:30;;;;;;;1.27;1.25;;;11.30;85.30;;;;;;5016474;28;20088;-65
2023/03/23 09:08:55;;;;;;;0.00;0.00;;;11.30;84.80;;;;;;5017568;28;20133;-66
2023/03/23 09:11:22;;;;;;;0.57;0.57;;;11.30;84.70;;;;;;5016279;28;20042;-66
2023/03/23 09:13:47;;;;;;;0.00;0.00;;;11.20;84.70;;;;;;5017477;28;20096;-65
2023/03/23 09:16:13;;;;;;;0.77;0.73;;;11.20;84.80;;;;;;5017033;28;20046;-65
2023/03/23 09:18:38;;;;;;;0.10;0.10;;;11.10;84.80;;;;;;5018491;28;20034;-66
2023/03/23 09:21:04;;;;;;;0.00;0.00;;;11.20;85.20;;;;;;5017044;28;20077;-67
2023/03/23 09:23:31;;;;;;;0.55;0.55;;;11.30;85.50;;;;;;5014189;28;20050;-66
2023/03/23 09:25:56;;;;;;;0.00;0.00;;;11.30;84.20;;;;;;4998916;28;20835;-66
2023/03/23 09:28:22;;;;;;;3.08;0.98;;;11.40;83.50;;;;;;5017618;28;20112;-67
2023/03/23 09:30:48;;;;;;;0.20;0.20;;;11.60;83.60;;;;;;5016506;28;20092;-66
2023/03/23 09:33:14;;;;;;;0.43;0.43;;;11.60;84.20;;;;;;5016363;28;20049;-66
2023/03/23 09:35:42;;;;;;;0.00;0.00;;;11.60;83.50;;;;;;5017818;28;20143;-66
2023/03/23 09:38:12;;;;;;;0.00;0.00;;;11.60;82.80;;;;;;5016993;28;20515;-66
2023/03/23 09:40:53;;;;;;;0.52;0.45;;;11.60;82.80;;;;;;5016231;28;20056;-67
2023/03/23 09:43:52;;;;;;;0.10;0.10;;;11.70;82.80;;;;;;5015321;28;20764;-66
2023/03/23 09:46:39;;;;;;;0.52;0.52;;;11.80;82.60;;;;;;5016629;28;20152;-66
2023/03/23 09:49:13;;;;;;;0.08;0.08;;;11.80;82.10;;;;;;5017640;28;20058;-66
2023/03/23 09:51:50;;;;;;;0.00;0.00;;;11.90;81.70;;;;;;5015600;28;20045;-66
2023/03/23 09:54:57;;;;;;;0.55;0.55;;;11.80;80.80;;;;;;5017061;28;20038;-66
2023/03/23 09:57:47;;;;;;;0.00;0.00;;;11.70;80.70;;;;;;4954721;28;20575;-66
2023/03/23 10:00:19;;;;;;;0.20;0.20;;;11.60;80.90;;;;;;4955484;28;20129;-66
2023/03/23 10:02:48;;;;;;;;;;;11.60;81.20;;;;;;4996366;28;20046;-66
2023/03/23 10:05:31;;;;;;;0.28;0.28;;;11.70;80.00;;;;;;5017427;28;19963;-66
2023/03/23 10:07:58;;;;;;;0.10;0.10;;;11.80;80.60;;;;;;5016478;28;20042;-67
2023/03/23 10:10:37;;;;;;;0.98;0.45;;;11.90;81.10;;;;;;5015953;28;20041;-66
2023/03/23 10:13:16;;;;;;;0.63;0.63;;;12.20;82.00;;;;;;5016075;28;20042;-66
2023/03/23 10:15:43;;;;;;;0.20;0.20;;;12.30;82.50;;;;;;4999036;28;20061;-66
2023/03/23 10:18:17;;;;;;;0.00;0.00;;;12.40;81.00;;;;;;5015860;28;20049;-64
2023/03/23 10:21:00;;;;;;;0.60;0.60;;;12.40;80.70;;;;;;5016401;28;20510;-67
2023/03/23 10:23:45;;;;;;;1.35;0.93;;;12.20;79.90;;;;;;5016306;28;20069;-65
2023/03/23 10:26:44;;;;;;;0.00;0.00;;;12.10;79.70;;;;;;5015774;28;20046;-68
2023/03/23 10:29:22;;;;;;;0.00;0.00;;;12.10;80.10;;;;;;5015608;28;20125;-66
2023/03/23 10:31:58;;;;;;;0.00;0.00;;;12.00;79.50;;;;;;5015371;28;20048;-66
2023/03/23 10:34:49;;;;;;;0.20;0.20;;;11.90;79.50;;;;;;4997950;28;20091;-66
2023/03/23 10:37:25;;;;;;;0.20;0.20;;;11.80;80.20;;;;;;4996491;28;20053;-66
2023/03/23 10:39:58;;;;;;;1.25;0.85;;;11.70;81.00;;;;;;5014453;28;20043;-66
2023/03/23 10:42:35;;;;;;;0.05;0.05;;;11.70;80.80;;;;;;4997972;28;20409;-66
2023/03/23 10:45:22;;;;;;;0.00;0.00;;;11.90;79.60;;;;;;5015120;28;20683;-66
2023/03/23 10:48:09;;;;;;;0.20;0.20;;;12.00;79.30;;;;;;5015670;28;20061;-66
2023/03/23 10:50:37;;;;;;;0.00;0.00;;;12.10;77.30;;;;;;5015931;28;20111;-66
2023/03/23 10:53:15;;;;;;;0.00;0.00;;;12.10;77.70;;;;;;5014988;28;20050;-66
2023/03/23 10:55:43;;;;;;;0.82;0.82;;;12.30;78.30;;;;;;5014521;28;20041;-65
2023/03/23 10:58:12;;;;;;;0.00;0.00;;;12.50;78.60;;;;;;5015638;28;20073;-66
2023/03/23 11:00:46;;;;;;;0.00;0.00;;;12.60;77.70;;;;;;5016045;28;20038;-66
2023/03/23 11:03:15;;;;;;;0.00;0.00;;;12.70;77.80;;;;;;5014898;28;20037;-66
2023/03/23 11:06:05;;;;;;;0.00;0.00;;;12.90;77.10;;;;;;5015047;28;20042;-67
2023/03/23 11:08:38;;;;;;;0.20;0.20;;;13.10;78.40;;;;;;5015642;28;20079;-66
2023/03/23 11:11:21;;;;;;;0.00;0.00;;;13.20;77.10;;;;;;5014269;28;20502;-65
2023/03/23 11:13:48;;;;;;;0.00;0.00;;;13.30;77.00;;;;;;5013766;28;20073;-66
2023/03/23 11:16:32;;;;;;;0.00;0.00;;;13.40;75.10;;;;;;5015531;28;20034;-66
2023/03/23 11:18:59;;;;;;;0.00;0.00;;;13.50;74.90;;;;;;5014794;28;21042;-66
2023/03/23 11:21:27;;;;;;;0.00;0.00;;;13.60;75.10;;;;;;5015467;28;20038;-66
2023/03/23 11:23:58;;;;;;;1.33;1.23;;;13.60;74.50;;;;;;5015769;28;20674;-66
2023/03/23 11:26:33;;;;;;;0.00;0.00;;;13.60;73.40;;;;;;5016197;28;20037;-67
2023/03/23 11:29:13;;;;;;;0.00;0.00;;;13.50;71.00;;;;;;5017306;28;20053;-66
2023/03/23 11:31:40;;;;;;;0.00;0.00;;;13.50;71.70;;;;;;5019507;28;20662;-66
2023/03/23 11:34:40;;;;;;;4.78;0.77;;;13.50;71.60;;;;;;5001478;28;20049;-66
2023/03/23 11:37:22;;;;;;;0.00;0.00;;;13.40;71.10;;;;;;5018308;28;20502;-66
2023/03/23 11:40:06;;;;;;;0.00;0.00;;;13.50;71.90;;;;;;5017964;28;20041;-67
2023/03/23 11:42:31;;;;;;;0.00;0.00;;;13.30;72.80;;;;;;5017623;28;20055;-66
2023/03/23 11:45:22;;;;;;;1.17;1.08;;;13.40;72.00;;;;;;5018824;28;20050;-65
2023/03/23 11:48:06;;;;;;;0.95;0.90;;;13.50;71.90;;;;;;5017603;28;20056;-65
2023/03/23 11:50:53;;;;;;;0.00;0.00;;;13.60;71.90;;;;;;5000497;28;20064;-64
2023/03/23 11:53:30;;;;;;;0.13;0.13;;;13.60;71.30;;;;;;5000638;28;20103;-64
2023/03/23 11:55:55;;;;;;;4.03;2.53;;;13.60;71.80;;;;;;5018344;28;20382;-65
2023/03/23 11:58:22;;;;;;;0.38;0.38;;;13.60;72.30;;;;;;5018858;28;20054;-65
2023/03/23 12:00:57;;;;;;;0.05;0.05;;;13.60;72.20;;;;;;5018299;28;20495;-65
2023/03/23 12:03:52;;;;;;;0.00;0.00;;;13.70;71.90;;;;;;5017910;28;20077;-65
2023/03/23 12:06:38;;;;;;;0.00;0.00;;;13.60;72.50;;;;;;5019028;28;20057;-65
2023/03/23 12:09:19;;;;;;;5.18;2.38;;;13.70;72.90;;;;;;5019297;28;20068;-65
2023/03/23 12:12:15;;;;;;;0.00;0.00;;;13.70;71.20;;;;;;5017118;28;20118;-65
2023/03/23 12:14:56;;;;;;;0.65;0.65;;;13.80;72.30;;;;;;5019687;28;20656;-65
2023/03/23 12:17:43;;;;;;;0.10;0.10;;;13.80;71.40;;;;;;5018311;28;20046;-65
2023/03/23 12:20:14;;;;;;;0.00;0.00;;;13.80;71.60;;;;;;5018022;28;20606;-66
2023/03/23 12:22:52;;;;;;;0.00;0.00;;;13.70;70.60;;;;;;5000731;28;20065;-66
2023/03/23 12:25:29;;;;;;;0.30;0.30;;;13.70;70.60;;;;;;5017230;28;20045;-66
2023/03/23 12:28:15;;;;;;;0.00;0.00;;;13.80;72.20;;;;;;5018201;28;20053;-66
2023/03/23 12:30:45;;;;;;;0.00;0.00;;;13.90;72.70;;;;;;5017860;28;20041;-66
2023/03/23 12:33:13;;;;;;;1.27;1.17;;;13.90;72.40;;;;;;5018597;28;20056;-66
2023/03/23 12:36:03;;;;;;;20.35;2.95;;;13.90;71.20;;;;;;5019088;28;20041;-66
2023/03/23 12:38:48;;;;;;;5.43;1.63;;;13.80;72.30;;;;;;4982247;28;20060;-66
2023/03/23 12:41:26;;;;;;;0.00;0.00;;;13.90;72.10;;;;;;5018637;28;20099;-67
2023/03/23 12:43:56;;;;;;;3.95;2.60;;;14.00;72.70;;;;;;5016987;28;20046;-67
2023/03/23 12:46:44;;;;;;;0.00;0.00;;;13.90;72.40;;;;;;5016871;28;20057;-67
2023/03/23 12:49:37;;;;;;;0.03;0.03;;;14.00;72.50;;;;;;5015895;28;20057;-67
2023/03/23 12:52:20;;;;;;;0.17;0.17;;;14.00;71.00;;;;;;5017257;28;20057;-67
2023/03/23 12:54:56;;;;;;;0.00;0.00;;;13.90;70.90;;;;;;5016414;28;21281;-67
2023/03/23 12:57:39;;;;;;;0.32;0.32;;;13.80;71.30;;;;;;4998323;28;20532;-67
2023/03/23 13:00:18;;;;;;;0.00;0.00;;;14.00;71.90;;;;;;5017280;28;20068;-67
2023/03/23 13:03:04;;;;;;;0.17;0.17;;;14.10;72.00;;;;;;5000569;28;20096;-67
2023/03/23 13:05:40;;;;;;;0.08;0.08;;;14.30;71.40;;;;;;4962353;28;20558;-67